Time;durP1;ratioP1;P1;durP2;ratioP2;P2;SDS_P1;SDS_P2;PMS_P1;PMS_P2;Temp;Humidity;BMP_temperature;BMP_pressure;BME280_temperature;BME280_humidity;BME280_pressure;Samples;Min_cycle;Max_cycle;Signal;HPM_P1;HPM_P2
2023/01/04 00:01:28;;;;;;;8.70;3.60;;;8.10;99.90;;;;;;5923194;24;20050;-88
2023/01/04 00:03:54;;;;;;;8.27;3.15;;;8.20;99.90;;;;;;5945844;24;20020;-89
2023/01/04 00:06:20;;;;;;;6.35;3.38;;;8.20;99.90;;;;;;5945294;24;20019;-90
2023/01/04 00:08:47;;;;;;;7.63;3.33;;;8.20;99.90;;;;;;5922270;24;20266;-88
2023/01/04 00:11:18;;;;;;;9.52;3.60;;;8.20;99.90;;;;;;5922710;24;20355;-88
2023/01/04 00:13:49;;;;;;;7.82;3.70;;;8.20;99.90;;;;;;5924055;24;20131;-89
2023/01/04 00:16:18;;;;;;;11.77;3.63;;;8.20;99.90;;;;;;5922578;24;20020;-88
2023/01/04 00:18:44;;;;;;;12.48;4.07;;;8.20;99.90;;;;;;5969734;24;20016;-88
2023/01/04 00:21:15;;;;;;;10.65;3.70;;;8.20;99.90;;;;;;5922924;24;20062;-89
2023/01/04 00:23:42;;;;;;;9.88;3.25;;;8.20;99.90;;;;;;5922682;24;20343;-89
2023/01/04 00:26:10;;;;;;;8.63;3.88;;;8.20;99.90;;;;;;5923471;24;20068;-89
2023/01/04 00:28:37;;;;;;;9.65;4.03;;;8.20;99.90;;;;;;5923836;24;20112;-90
2023/01/04 00:31:11;;;;;;;11.38;3.35;;;8.20;99.90;;;;;;5923247;24;20471;-89
2023/01/04 00:33:57;;;;;;;9.70;4.35;;;8.20;99.90;;;;;;5950654;24;20022;-90
2023/01/04 00:36:23;;;;;;;7.38;3.60;;;8.20;99.90;;;;;;5923375;24;20441;-89
2023/01/04 00:39:11;;;;;;;8.88;3.80;;;8.20;99.90;;;;;;5923491;24;20075;-89
2023/01/04 00:41:51;;;;;;;9.88;3.70;;;8.20;99.90;;;;;;5921963;24;20048;-89
2023/01/04 00:44:20;;;;;;;18.55;4.93;;;8.20;99.90;;;;;;5923519;24;20074;-88
2023/01/04 00:46:46;;;;;;;10.70;4.53;;;8.10;99.90;;;;;;5921310;24;20020;-90
2023/01/04 00:49:13;;;;;;;8.05;4.40;;;8.10;99.90;;;;;;5924235;24;20064;-89
2023/01/04 00:51:40;;;;;;;10.93;4.28;;;8.10;99.90;;;;;;5944516;24;20035;-89
2023/01/04 00:54:11;;;;;;;8.95;4.20;;;8.10;99.90;;;;;;5923581;24;20223;-89
2023/01/04 00:56:36;;;;;;;10.70;4.57;;;8.10;99.90;;;;;;5946090;24;20031;-89
2023/01/04 00:59:03;;;;;;;8.15;4.30;;;8.00;99.90;;;;;;5922992;24;20021;-89
2023/01/04 01:01:33;;;;;;;11.27;4.57;;;8.10;99.90;;;;;;5923469;24;20123;-88
2023/01/04 01:04:01;;;;;;;11.07;4.30;;;8.00;99.90;;;;;;5923274;24;20554;-90
2023/01/04 01:06:32;;;;;;;7.68;4.60;;;8.00;99.90;;;;;;5967021;24;20016;-88
2023/01/04 01:09:01;;;;;;;11.88;4.38;;;8.10;99.90;;;;;;5923469;24;20047;-89
2023/01/04 01:11:28;;;;;;;9.85;4.38;;;8.10;99.90;;;;;;5923403;24;20031;-89
2023/01/04 01:13:54;;;;;;;12.63;4.78;;;8.10;99.90;;;;;;5923071;24;20016;-90
2023/01/04 01:16:22;;;;;;;7.35;4.15;;;8.10;99.90;;;;;;5944245;24;20030;-90
2023/01/04 01:18:48;;;;;;;7.53;4.07;;;8.10;99.90;;;;;;5922222;24;20107;-87
2023/01/04 01:21:16;;;;;;;10.52;3.80;;;8.10;99.90;;;;;;5946352;24;20038;-88
2023/01/04 01:23:42;;;;;;;12.32;4.32;;;8.10;99.90;;;;;;5969363;24;20049;-89
2023/01/04 01:26:12;;;;;;;7.40;4.28;;;8.10;99.90;;;;;;5924906;24;20027;-89
2023/01/04 01:28:38;;;;;;;8.00;4.03;;;8.20;99.90;;;;;;5971078;24;20382;-89
2023/01/04 01:31:09;;;;;;;7.85;4.80;;;8.10;99.90;;;;;;5925891;24;20374;-89
2023/01/04 01:33:39;;;;;;;6.15;3.78;;;8.10;99.90;;;;;;5925294;24;20031;-89
2023/01/04 01:36:06;;;;;;;9.80;3.90;;;8.20;99.90;;;;;;5925374;24;20562;-90
2023/01/04 01:38:32;;;;;;;10.82;4.20;;;8.20;99.90;;;;;;5925032;24;20058;-88
2023/01/04 01:41:00;;;;;;;11.90;3.97;;;8.20;99.90;;;;;;5926223;24;20079;-88
2023/01/04 01:43:48;;;;;;;7.95;3.78;;;8.20;99.90;;;;;;5948471;24;20020;-88
2023/01/04 01:46:20;;;;;;;6.97;4.20;;;8.20;99.90;;;;;;5971885;24;20083;-89
2023/01/04 01:48:52;;;;;;;8.32;4.10;;;8.20;99.90;;;;;;5926003;24;20807;-88
2023/01/04 01:51:18;;;;;;;4.60;3.67;;;8.20;99.90;;;;;;5925512;24;20027;-88
2023/01/04 01:53:52;;;;;;;9.15;4.03;;;8.10;99.90;;;;;;5923733;24;20127;-89
2023/01/04 01:56:17;;;;;;;7.13;3.80;;;8.20;99.90;;;;;;5971458;24;20066;-90
2023/01/04 01:58:47;;;;;;;7.55;4.05;;;8.20;99.90;;;;;;5994291;23;20020;-89
2023/01/04 02:01:14;;;;;;;5.38;3.88;;;8.20;99.90;;;;;;5923850;24;20020;-90
2023/01/04 02:03:41;;;;;;;7.00;4.30;;;8.20;99.90;;;;;;5923901;24;20095;-89
2023/01/04 02:06:18;;;;;;;7.50;3.90;;;8.20;99.90;;;;;;5969612;24;20023;-89
2023/01/04 02:08:45;;;;;;;6.50;3.58;;;8.20;99.90;;;;;;5923612;24;20080;-88
2023/01/04 02:11:10;;;;;;;6.07;4.00;;;8.20;99.90;;;;;;5924313;24;20454;-89
2023/01/04 02:16:35;;;;;;;7.30;4.15;;;8.30;99.90;;;;;;5947565;24;20122;-90
2023/01/04 02:19:55;;;;;;;9.57;3.58;;;8.30;99.90;;;;;;5923985;24;20097;-89
2023/01/04 02:22:29;;;;;;;4.57;3.30;;;8.30;99.90;;;;;;5911829;24;20324;-89
2023/01/04 02:25:21;;;;;;;5.93;3.35;;;8.30;99.90;;;;;;5968879;24;20024;-88
2023/01/04 02:27:48;;;;;;;8.48;3.47;;;8.40;99.90;;;;;;5924193;24;20016;-89
2023/01/04 02:30:47;;;;;;;7.60;3.25;;;8.40;99.90;;;;;;5970310;24;20023;-89
2023/01/04 02:33:43;;;;;;;4.75;2.90;;;8.40;99.90;;;;;;5970161;24;20024;-89
2023/01/04 02:36:22;;;;;;;5.40;2.85;;;8.40;99.90;;;;;;5942677;24;20028;-91
2023/01/04 02:39:04;;;;;;;3.63;2.70;;;8.50;99.90;;;;;;5945898;24;20024;-90
2023/01/04 02:41:57;;;;;;;3.78;2.78;;;8.50;99.90;;;;;;5969991;24;20537;-89
2023/01/04 02:44:53;;;;;;;5.05;2.70;;;8.50;99.90;;;;;;5918540;24;20020;-89
2023/01/04 02:50:29;;;;;;;4.22;2.60;;;8.50;99.90;;;;;;5923772;24;20020;-89
2023/01/04 02:50:31;;;;;;;3.80;2.45;;;8.50;99.90;;;;;;5946050;24;20028;-91
2023/01/04 02:53:01;;;;;;;5.25;2.78;;;8.60;99.90;;;;;;5937261;24;20214;-89
2023/01/04 02:55:39;;;;;;;3.65;2.10;;;8.60;99.90;;;;;;5923732;24;20077;-88
2023/01/04 02:58:46;;;;;;;3.78;2.60;;;8.60;99.90;;;;;;5924035;24;20433;-90
2023/01/04 03:07:48;;;;;;;4.82;2.60;;;8.70;99.90;;;;;;5945381;24;20035;-90
2023/01/04 03:10:21;;;;;;;3.75;2.22;;;8.70;99.90;;;;;;5924552;24;20019;-89
2023/01/04 03:12:53;;;;;;;3.67;2.50;;;8.80;99.90;;;;;;5969940;24;20023;-90
2023/01/04 03:15:26;;;;;;;4.20;2.30;;;8.80;99.90;;;;;;5923433;24;20020;-89
2023/01/04 03:17:56;;;;;;;3.78;2.20;;;8.80;99.90;;;;;;5923557;24;20349;-90
2023/01/04 03:20:24;;;;;;;2.72;2.25;;;8.80;99.90;;;;;;5922534;24;20081;-90
2023/01/04 03:49:59;;;;;;;2.35;1.60;;;9.40;99.90;;;;;;5944745;24;20047;-90
2023/01/04 03:52:30;;;;;;;3.08;2.00;;;9.40;99.90;;;;;;5965766;24;20499;-89
2023/01/04 03:54:58;;;;;;;2.30;2.00;;;9.50;99.90;;;;;;5942610;24;20046;-88
2023/01/04 03:57:25;;;;;;;2.35;2.10;;;9.50;99.90;;;;;;5920307;24;20126;-89
2023/01/04 04:00:06;;;;;;;3.05;1.90;;;9.60;99.90;;;;;;5922557;24;20020;-90
2023/01/04 04:02:38;;;;;;;2.47;2.10;;;9.60;99.90;;;;;;5944912;24;20045;-89
2023/01/04 04:10:33;;;;;;;4.13;2.33;;;9.80;99.90;;;;;;5946200;24;20080;-90
2023/01/04 04:13:01;;;;;;;2.20;2.00;;;9.80;99.90;;;;;;5923776;24;20020;-90
2023/01/04 04:15:27;;;;;;;2.97;2.00;;;9.90;99.90;;;;;;5923015;24;20091;-90
2023/01/04 04:17:53;;;;;;;2.50;2.10;;;9.90;99.90;;;;;;5923515;24;20027;-89
2023/01/04 04:20:18;;;;;;;2.22;2.03;;;10.00;99.90;;;;;;5922653;24;20035;-90
2023/01/04 04:22:44;;;;;;;2.33;1.85;;;10.00;99.90;;;;;;5945161;24;20384;-88
2023/01/04 04:25:10;;;;;;;2.22;1.90;;;10.00;99.90;;;;;;5922493;24;20019;-88
2023/01/04 04:27:35;;;;;;;2.22;2.03;;;10.10;99.90;;;;;;5922428;24;20307;-88
2023/01/04 04:30:04;;;;;;;2.22;2.03;;;10.10;99.90;;;;;;5945685;24;20018;-88
2023/01/04 04:32:30;;;;;;;2.20;2.00;;;10.20;99.90;;;;;;5922794;24;20471;-89
2023/01/04 04:34:56;;;;;;;2.20;2.00;;;10.30;99.90;;;;;;5922245;24;20083;-88
2023/01/04 04:37:21;;;;;;;2.35;1.80;;;10.30;99.90;;;;;;5922105;24;20013;-89
2023/01/04 04:39:47;;;;;;;2.30;2.10;;;10.30;99.90;;;;;;5968810;24;20392;-88
2023/01/04 04:42:12;;;;;;;2.30;2.10;;;10.40;99.90;;;;;;5946612;24;20158;-89
2023/01/04 04:44:38;;;;;;;2.40;2.10;;;10.40;99.90;;;;;;5945204;24;20016;-88
2023/01/04 04:47:04;;;;;;;2.50;2.03;;;10.40;99.90;;;;;;5924035;24;20057;-89
2023/01/04 04:49:32;;;;;;;2.78;2.38;;;10.40;99.90;;;;;;5945164;24;20020;-89
2023/01/04 04:51:58;;;;;;;3.83;2.70;;;10.40;99.90;;;;;;5922193;24;20155;-90
2023/01/04 04:54:24;;;;;;;2.67;2.33;;;10.50;99.90;;;;;;5945819;24;20055;-88
2023/01/04 04:56:49;;;;;;;2.30;2.10;;;10.50;99.90;;;;;;5945263;24;20075;-90
2023/01/04 04:59:15;;;;;;;3.80;2.40;;;10.50;99.90;;;;;;5992263;23;20027;-89
2023/01/04 05:01:41;;;;;;;2.90;2.33;;;10.50;99.90;;;;;;5921605;24;20331;-89
2023/01/04 05:04:07;;;;;;;2.75;2.35;;;10.50;99.90;;;;;;5923363;24;20056;-89
2023/01/04 05:06:32;;;;;;;2.72;2.50;;;10.50;99.90;;;;;;5922362;24;20542;-89
2023/01/04 05:09:01;;;;;;;3.00;2.70;;;10.60;99.90;;;;;;5922956;24;20466;-89
2023/01/04 05:14:11;;;;;;;2.90;2.45;;;10.70;99.90;;;;;;5946009;24;20166;-89
2023/01/04 05:16:37;;;;;;;3.67;2.55;;;10.80;99.90;;;;;;5922771;24;20427;-88
2023/01/04 05:19:02;;;;;;;3.17;2.80;;;10.80;99.90;;;;;;5924002;24;20020;-89
2023/01/04 05:21:28;;;;;;;2.83;2.53;;;10.80;99.90;;;;;;5921784;24;20350;-90
2023/01/04 05:23:56;;;;;;;3.60;2.70;;;10.80;99.90;;;;;;5924349;24;20022;-90
2023/01/04 05:26:25;;;;;;;4.45;2.83;;;10.90;99.90;;;;;;5945601;24;20123;-88
2023/01/04 05:28:51;;;;;;;4.43;2.90;;;10.90;99.90;;;;;;5923293;24;20107;-89
2023/01/04 05:31:16;;;;;;;4.28;3.00;;;10.90;99.90;;;;;;5945488;24;20052;-88
2023/01/04 05:33:42;;;;;;;3.42;2.67;;;10.90;99.90;;;;;;5923285;24;20020;-89
2023/01/04 05:36:07;;;;;;;4.25;2.78;;;10.90;99.90;;;;;;5945868;24;20490;-89
2023/01/04 05:38:36;;;;;;;3.60;2.78;;;10.90;99.90;;;;;;5922336;24;20096;-89
2023/01/04 05:41:02;;;;;;;5.95;2.95;;;10.90;99.90;;;;;;5922774;24;20020;-90
2023/01/04 05:43:27;;;;;;;3.53;2.70;;;11.00;99.90;;;;;;5922655;24;20009;-89
2023/01/04 05:45:55;;;;;;;2.67;2.45;;;11.00;99.90;;;;;;5991845;23;20012;-91
2023/01/04 05:48:22;;;;;;;3.60;2.70;;;10.90;99.90;;;;;;5946067;24;20012;-90
2023/01/04 05:50:48;;;;;;;3.25;2.90;;;11.00;99.90;;;;;;5922336;24;20130;-89
2023/01/04 05:53:17;;;;;;;4.47;2.72;;;11.00;99.90;;;;;;5945066;24;20505;-89
2023/01/04 05:55:44;;;;;;;3.25;2.65;;;11.00;99.90;;;;;;5922372;24;20020;-88
2023/01/04 05:58:10;;;;;;;2.88;2.60;;;10.90;99.90;;;;;;5945749;24;20103;-90
2023/01/04 06:00:35;;;;;;;6.88;3.00;;;11.00;99.90;;;;;;5922424;24;20047;-91
2023/01/04 06:03:01;;;;;;;4.65;2.72;;;10.90;99.90;;;;;;5992397;23;20024;-91
2023/01/04 06:05:27;;;;;;;4.20;2.78;;;11.00;99.90;;;;;;5944679;24;20518;-90
2023/01/04 06:07:52;;;;;;;4.28;3.00;;;11.00;99.90;;;;;;5924002;24;20016;-89
2023/01/04 06:10:21;;;;;;;3.70;2.83;;;11.00;99.90;;;;;;5924726;24;20024;-90
2023/01/04 06:12:47;;;;;;;3.80;2.50;;;11.00;99.90;;;;;;5923988;24;20024;-90
2023/01/04 06:15:13;;;;;;;3.78;2.55;;;11.00;99.90;;;;;;5970720;24;20023;-91
2023/01/04 06:17:39;;;;;;;3.97;2.80;;;11.00;99.90;;;;;;5971221;24;20024;-90
2023/01/04 06:20:08;;;;;;;3.20;2.63;;;11.00;99.90;;;;;;5924080;24;20020;-90
2023/01/04 06:22:39;;;;;;;4.30;2.83;;;11.00;99.90;;;;;;5922989;24;20055;-89
2023/01/04 06:25:05;;;;;;;4.63;2.55;;;11.00;99.90;;;;;;5970740;24;20197;-90
2023/01/04 06:27:30;;;;;;;3.85;2.60;;;11.10;99.90;;;;;;5994272;23;20412;-90
2023/01/04 06:29:56;;;;;;;3.78;2.58;;;11.10;99.90;;;;;;5924221;24;20062;-91
2023/01/04 06:32:22;;;;;;;2.95;2.65;;;11.10;99.90;;;;;;5925147;24;20016;-89
2023/01/04 06:34:47;;;;;;;2.70;2.30;;;11.10;99.90;;;;;;5946854;24;20012;-90
2023/01/04 06:37:13;;;;;;;2.50;2.20;;;11.10;99.90;;;;;;5923202;24;20436;-90
2023/01/04 06:39:39;;;;;;;4.07;2.45;;;11.10;99.90;;;;;;5924452;24;20020;-90
2023/01/04 06:42:05;;;;;;;3.65;2.33;;;11.10;99.90;;;;;;5924266;24;20613;-89
2023/01/04 06:44:30;;;;;;;3.28;2.08;;;11.10;99.90;;;;;;5924881;24;20016;-90
2023/01/04 06:46:56;;;;;;;4.10;2.08;;;11.20;99.90;;;;;;5924065;24;20016;-90
2023/01/04 06:49:22;;;;;;;3.10;2.45;;;11.20;99.90;;;;;;5924456;24;20050;-91
2023/01/04 06:51:47;;;;;;;3.10;2.25;;;11.20;99.90;;;;;;5923209;24;20077;-90
2023/01/04 06:54:13;;;;;;;3.38;2.28;;;11.20;99.90;;;;;;5924211;24;20016;-90
2023/01/04 06:56:40;;;;;;;3.47;2.10;;;11.20;99.90;;;;;;5947973;24;20080;-90
2023/01/04 06:59:09;;;;;;;3.50;2.10;;;11.20;99.90;;;;;;5923991;24;20034;-90
2023/01/04 07:01:34;;;;;;;2.92;1.75;;;11.20;99.90;;;;;;5922499;24;20307;-91
2023/01/04 07:04:00;;;;;;;3.15;1.83;;;11.30;99.90;;;;;;5946976;24;20020;-90
2023/01/04 07:06:26;;;;;;;2.50;1.85;;;11.30;99.90;;;;;;5946805;24;20116;-91
2023/01/04 07:08:52;;;;;;;2.00;1.80;;;11.30;99.90;;;;;;5970105;23;20020;-90
2023/01/04 07:11:17;;;;;;;3.53;1.90;;;11.30;99.90;;;;;;5925542;24;20087;-89
2023/01/04 07:13:43;;;;;;;2.67;2.15;;;11.30;99.90;;;;;;5924957;24;20020;-91
2023/01/04 07:16:08;;;;;;;2.45;1.92;;;11.30;99.90;;;;;;5924398;24;20030;-91
2023/01/04 07:18:37;;;;;;;2.42;2.00;;;11.30;99.90;;;;;;5947094;24;20042;-90
2023/01/04 07:21:03;;;;;;;3.10;2.00;;;11.30;99.90;;;;;;5924074;24;20107;-89
2023/01/04 07:23:28;;;;;;;2.95;2.28;;;11.30;99.90;;;;;;5924171;24;20044;-89
2023/01/04 07:25:54;;;;;;;3.60;2.30;;;11.30;99.90;;;;;;5947218;24;20059;-88
2023/01/04 07:31:09;;;;;;;5.15;2.75;;;11.40;99.90;;;;;;5946096;24;20107;-89
2023/01/04 07:33:34;;;;;;;2.35;2.00;;;11.40;99.90;;;;;;5925365;24;20225;-90
2023/01/04 07:36:02;;;;;;;4.22;2.22;;;11.50;99.90;;;;;;5992689;23;20016;-89
2023/01/04 07:38:27;;;;;;;2.88;2.10;;;11.40;99.90;;;;;;5923164;24;20354;-90
2023/01/04 07:40:53;;;;;;;2.35;2.10;;;11.40;99.90;;;;;;5922862;24;20133;-90
2023/01/04 07:43:19;;;;;;;2.30;1.80;;;11.40;99.90;;;;;;5924015;24;20012;-90
2023/01/04 07:45:45;;;;;;;2.60;2.00;;;11.40;99.90;;;;;;5922975;24;20353;-89
2023/01/04 07:48:13;;;;;;;2.97;1.60;;;11.40;99.90;;;;;;5921777;24;20020;-90
2023/01/04 07:50:39;;;;;;;2.63;1.55;;;11.40;99.90;;;;;;5968131;24;20066;-91
2023/01/04 07:53:05;;;;;;;1.70;1.40;;;11.40;99.90;;;;;;5942232;24;20355;-90
2023/01/04 07:55:30;;;;;;;2.08;1.58;;;11.50;99.90;;;;;;5991467;23;20020;-88
2023/01/04 07:57:56;;;;;;;4.07;1.80;;;11.50;99.90;;;;;;5919270;24;20047;-90
2023/01/04 08:00:22;;;;;;;2.13;1.70;;;11.40;99.90;;;;;;5922694;24;20535;-89
2023/01/04 08:02:50;;;;;;;2.88;1.60;;;11.50;99.90;;;;;;5945629;24;20099;-89
2023/01/04 08:05:16;;;;;;;2.13;1.92;;;11.50;99.90;;;;;;5945972;24;20020;-90
2023/01/04 08:07:41;;;;;;;2.13;1.60;;;11.50;99.90;;;;;;5921615;24;20023;-89
2023/01/04 08:10:08;;;;;;;2.63;1.58;;;11.50;99.90;;;;;;5922630;24;20135;-90
2023/01/04 08:12:33;;;;;;;2.40;1.60;;;11.50;99.90;;;;;;5923868;24;20047;-90
2023/01/04 08:15:00;;;;;;;2.35;1.80;;;11.50;99.90;;;;;;5946238;24;20013;-90
2023/01/04 08:17:25;;;;;;;2.00;1.70;;;11.50;99.90;;;;;;5947053;24;20012;-91
2023/01/04 08:19:57;;;;;;;2.17;1.67;;;11.50;99.90;;;;;;5922902;24;20038;-91
2023/01/04 08:22:23;;;;;;;2.05;1.70;;;11.50;99.90;;;;;;5991286;23;20047;-89
2023/01/04 08:24:48;;;;;;;3.08;1.50;;;11.50;99.90;;;;;;5944950;24;20020;-91
2023/01/04 08:27:14;;;;;;;1.75;1.50;;;11.50;99.90;;;;;;5922150;24;20102;-89
2023/01/04 08:29:40;;;;;;;2.70;1.80;;;11.50;99.90;;;;;;5921878;24;20341;-89
2023/01/04 08:32:05;;;;;;;2.28;1.73;;;11.50;99.90;;;;;;5922331;24;20304;-90
2023/01/04 08:34:31;;;;;;;2.15;1.77;;;11.50;99.90;;;;;;5922432;24;20370;-89
2023/01/04 08:36:57;;;;;;;2.47;1.80;;;11.60;99.90;;;;;;5922120;24;20034;-91
2023/01/04 08:39:32;;;;;;;3.22;1.80;;;11.50;99.90;;;;;;5922630;24;20024;-90
2023/01/04 08:41:57;;;;;;;2.65;2.00;;;11.50;99.90;;;;;;5922141;24;20093;-89
2023/01/04 08:44:24;;;;;;;2.80;1.95;;;11.60;99.90;;;;;;5922652;24;20370;-90
2023/01/04 08:46:51;;;;;;;3.30;2.08;;;11.50;99.90;;;;;;5967863;24;20489;-90
2023/01/04 08:49:21;;;;;;;3.10;2.00;;;11.60;99.90;;;;;;5922907;24;20020;-90
2023/01/04 08:51:48;;;;;;;3.25;2.30;;;11.60;99.90;;;;;;5920275;24;20344;-90
2023/01/04 08:54:14;;;;;;;3.70;2.10;;;11.60;99.90;;;;;;5945694;24;20092;-89
2023/01/04 08:56:40;;;;;;;3.58;2.28;;;11.60;99.90;;;;;;5945914;24;20430;-91
2023/01/04 08:59:06;;;;;;;2.47;2.20;;;11.60;99.90;;;;;;5923316;24;20024;-88
2023/01/04 09:01:33;;;;;;;2.95;2.20;;;11.60;99.90;;;;;;5918631;24;20121;-90
2023/01/04 09:03:59;;;;;;;3.22;2.33;;;11.70;99.90;;;;;;5917932;24;20028;-90
2023/01/04 09:06:25;;;;;;;2.80;2.17;;;11.60;99.90;;;;;;5958419;24;20154;-89
2023/01/04 09:08:51;;;;;;;2.85;1.80;;;11.70;99.90;;;;;;5935994;24;20012;-89
2023/01/04 09:11:19;;;;;;;2.05;1.85;;;11.70;99.90;;;;;;5914182;24;20339;-91
2023/01/04 09:13:49;;;;;;;2.25;1.70;;;11.70;99.90;;;;;;5915892;24;20024;-91
2023/01/04 09:16:17;;;;;;;1.92;1.63;;;11.70;99.90;;;;;;5918783;24;20055;-88
2023/01/04 09:18:43;;;;;;;2.03;1.40;;;11.80;99.90;;;;;;5965382;24;20047;-89
2023/01/04 09:21:12;;;;;;;1.60;1.50;;;11.80;99.90;;;;;;5918398;24;20099;-89
2023/01/04 09:23:44;;;;;;;2.00;1.27;;;11.80;99.90;;;;;;5917738;24;20312;-89
2023/01/04 09:26:35;;;;;;;3.58;1.63;;;11.80;99.90;;;;;;5918856;24;20111;-91
2023/01/04 09:29:02;;;;;;;2.95;1.75;;;11.80;99.90;;;;;;5917176;24;20016;-89
2023/01/04 09:31:28;;;;;;;2.10;1.52;;;11.90;99.90;;;;;;5941940;24;20020;-90
2023/01/04 09:33:55;;;;;;;2.40;1.45;;;11.80;99.90;;;;;;5943529;24;20020;-91
2023/01/04 09:36:23;;;;;;;2.97;1.52;;;11.90;99.90;;;;;;5919788;24;20031;-91
2023/01/04 09:38:48;;;;;;;3.10;1.63;;;11.80;99.90;;;;;;5918900;24;20020;-89
2023/01/04 09:41:29;;;;;;;2.80;1.50;;;11.90;99.90;;;;;;5943659;24;20324;-90
2023/01/04 09:43:56;;;;;;;2.97;1.60;;;11.90;99.90;;;;;;5945092;24;20076;-89
2023/01/04 09:46:41;;;;;;;2.55;1.98;;;11.90;99.90;;;;;;5944310;24;20027;-88
2023/01/04 09:49:16;;;;;;;5.13;1.97;;;11.90;99.90;;;;;;5969402;24;20020;-89
2023/01/04 09:51:56;;;;;;;4.38;2.03;;;11.90;99.90;;;;;;5967472;24;20062;-92
2023/01/04 09:54:27;;;;;;;3.97;2.42;;;11.90;99.90;;;;;;5946202;24;20810;-87
2023/01/04 09:56:57;;;;;;;5.25;2.20;;;11.90;99.90;;;;;;5944863;24;20068;-89
2023/01/04 09:59:30;;;;;;;5.82;2.45;;;11.90;99.90;;;;;;5920510;24;20035;-90
2023/01/04 10:02:12;;;;;;;6.70;2.65;;;11.90;99.90;;;;;;5921141;24;20020;-89
2023/01/04 10:04:48;;;;;;;6.43;2.95;;;11.90;99.90;;;;;;5945134;24;20449;-92
2023/01/04 10:07:29;;;;;;;5.70;2.70;;;11.90;99.90;;;;;;5920901;24;20020;-89
2023/01/04 10:09:56;;;;;;;6.60;2.95;;;12.00;99.90;;;;;;5922159;24;20331;-90
2023/01/04 10:12:41;;;;;;;9.60;3.10;;;12.00;99.90;;;;;;5919792;24;20020;-89
2023/01/04 10:15:36;;;;;;;9.07;2.88;;;11.90;99.90;;;;;;5966111;24;20372;-89
2023/01/04 10:18:08;;;;;;;9.00;3.15;;;11.90;99.90;;;;;;5945632;24;20462;-91
2023/01/04 10:21:19;;;;;;;7.43;2.60;;;12.00;99.90;;;;;;5967561;24;20020;-89
2023/01/04 10:24:03;;;;;;;9.75;3.13;;;12.00;99.90;;;;;;5935110;24;20024;-88
2023/01/04 10:26:44;;;;;;;13.75;3.20;;;12.10;99.90;;;;;;5968085;24;20040;-90
2023/01/04 10:29:28;;;;;;;13.45;3.38;;;12.10;99.90;;;;;;5922233;24;20209;-90
2023/01/04 10:32:00;;;;;;;13.18;3.67;;;12.10;99.90;;;;;;5967128;23;20508;-90
2023/01/04 10:34:38;;;;;;;11.95;3.60;;;12.10;99.90;;;;;;5922186;24;20521;-89
2023/01/04 10:37:17;;;;;;;11.80;3.28;;;12.20;99.90;;;;;;5920902;24;20016;-90
2023/01/04 10:39:44;;;;;;;13.45;3.28;;;12.10;99.90;;;;;;5921683;24;20115;-90
2023/01/04 10:42:32;;;;;;;14.35;3.97;;;12.20;99.90;;;;;;5920248;24;20015;-89
2023/01/04 10:45:14;;;;;;;16.52;3.50;;;12.10;99.90;;;;;;5944137;24;20235;-90
2023/01/04 10:48:02;;;;;;;20.30;3.95;;;12.10;99.90;;;;;;5990358;23;20056;-90
2023/01/04 10:50:36;;;;;;;15.57;3.72;;;12.20;99.90;;;;;;5968082;24;20396;-90
2023/01/04 10:53:23;;;;;;;19.92;5.13;;;12.20;99.90;;;;;;5965839;24;20350;-89
2023/01/04 10:55:54;;;;;;;14.13;4.05;;;12.20;99.90;;;;;;5942081;24;20020;-90
2023/01/04 10:58:27;;;;;;;21.98;4.70;;;12.30;99.90;;;;;;5968510;23;20415;-89
2023/01/04 11:01:02;;;;;;;22.88;5.28;;;12.30;99.90;;;;;;5922021;24;20016;-90
2023/01/04 11:03:39;;;;;;;23.10;4.72;;;12.30;99.90;;;;;;5922145;24;20081;-91
2023/01/04 11:06:17;;;;;;;23.33;5.13;;;12.30;99.90;;;;;;5944866;24;20020;-89
2023/01/04 11:08:55;;;;;;;19.70;5.30;;;12.30;99.90;;;;;;5920693;24;20059;-89
2023/01/04 11:11:25;;;;;;;26.23;5.20;;;12.30;99.90;;;;;;5920611;24;20056;-90
2023/01/04 11:13:51;;;;;;;21.95;4.80;;;12.30;99.90;;;;;;5944053;24;20030;-89
2023/01/04 11:16:17;;;;;;;22.70;4.93;;;12.30;99.90;;;;;;5965589;24;20016;-89
2023/01/04 11:18:45;;;;;;;30.73;6.28;;;12.40;99.90;;;;;;5945953;24;20477;-90
2023/01/04 11:21:13;;;;;;;29.52;5.32;;;12.40;99.90;;;;;;5919176;24;20020;-89
2023/01/04 11:23:39;;;;;;;25.50;4.85;;;12.30;99.90;;;;;;5920931;24;20127;-90
2023/01/04 11:26:14;;;;;;;26.23;6.18;;;12.20;99.90;;;;;;5920860;24;20099;-91
2023/01/04 11:28:44;;;;;;;26.95;5.80;;;12.20;99.90;;;;;;5920971;24;20016;-90
2023/01/04 11:31:26;;;;;;;22.05;5.18;;;12.20;99.90;;;;;;5967416;24;20020;-89
2023/01/04 11:34:01;;;;;;;27.52;4.82;;;12.20;99.90;;;;;;5921710;24;20059;-90
2023/01/04 11:36:44;;;;;;;20.60;4.93;;;12.20;99.90;;;;;;5920803;24;20161;-89
2023/01/04 11:39:21;;;;;;;23.85;4.57;;;12.30;99.90;;;;;;5944031;24;20054;-90
2023/01/04 11:42:03;;;;;;;24.52;4.65;;;12.30;99.90;;;;;;5920175;24;20030;-90
2023/01/04 11:44:32;;;;;;;23.30;5.15;;;12.30;99.90;;;;;;5922115;24;20119;-90
2023/01/04 11:47:19;;;;;;;20.85;4.22;;;12.40;99.90;;;;;;5920462;24;20016;-89
2023/01/04 11:49:45;;;;;;;21.42;4.38;;;12.30;99.90;;;;;;5919632;24;20447;-90
2023/01/04 11:52:38;;;;;;;21.15;4.65;;;12.30;99.90;;;;;;5919496;24;20027;-90
2023/01/04 11:55:33;;;;;;;16.98;4.43;;;12.40;99.90;;;;;;5918301;24;20455;-91
2023/01/04 11:58:14;;;;;;;28.88;5.30;;;12.40;99.90;;;;;;5931228;24;20343;-89
2023/01/04 12:00:54;;;;;;;24.88;4.47;;;12.40;99.90;;;;;;5921441;24;20020;-91
2023/01/04 12:03:37;;;;;;;17.80;3.75;;;12.40;99.90;;;;;;5918682;24;20028;-89
2023/01/04 12:06:40;;;;;;;27.33;4.28;;;12.30;99.90;;;;;;5919500;24;20380;-88
2023/01/04 12:09:12;;;;;;;21.65;4.80;;;12.30;99.90;;;;;;5943149;24;20399;-90
2023/01/04 12:12:11;;;;;;;18.85;4.60;;;12.40;99.90;;;;;;5919740;24;20020;-90
2023/01/04 12:14:44;;;;;;;18.35;4.30;;;12.40;99.90;;;;;;5911309;24;20471;-91
2023/01/04 12:17:26;;;;;;;15.82;3.95;;;12.40;99.90;;;;;;5875584;24;20031;-89
2023/01/04 12:20:00;;;;;;;17.40;3.72;;;12.40;99.90;;;;;;5920741;24;20024;-90
2023/01/04 12:22:38;;;;;;;15.95;3.88;;;12.40;99.90;;;;;;5963595;24;20059;-90
2023/01/04 12:25:16;;;;;;;22.52;4.03;;;12.40;99.90;;;;;;5919936;24;20047;-90
2023/01/04 12:27:47;;;;;;;15.57;3.97;;;12.40;99.90;;;;;;5966150;24;20050;-90
2023/01/04 12:30:34;;;;;;;14.57;3.38;;;12.40;99.90;;;;;;5919475;24;20019;-90
2023/01/04 12:33:29;;;;;;;10.50;3.63;;;12.30;99.90;;;;;;5942999;24;20037;-90
2023/01/04 12:36:06;;;;;;;15.63;3.15;;;12.30;99.90;;;;;;5942219;24;20023;-90
2023/01/04 12:38:51;;;;;;;9.35;2.72;;;12.30;99.90;;;;;;5943214;24;20447;-89
2023/01/04 12:41:21;;;;;;;12.18;3.00;;;12.30;99.90;;;;;;5966710;24;20027;-89
2023/01/04 12:43:48;;;;;;;11.30;2.47;;;12.30;99.90;;;;;;5921828;24;20020;-89
2023/01/04 12:49:28;;;;;;;9.70;2.63;;;12.30;99.90;;;;;;5943875;24;20117;-88
2023/01/04 12:52:06;;;;;;;9.77;2.85;;;12.30;99.90;;;;;;5965471;24;20020;-90
2023/01/04 12:54:45;;;;;;;8.50;2.60;;;12.30;99.90;;;;;;5966657;24;20255;-90
2023/01/04 12:57:32;;;;;;;7.35;1.85;;;12.30;99.90;;;;;;5966120;24;20163;-91
2023/01/04 13:00:08;;;;;;;5.35;1.80;;;12.30;99.90;;;;;;5920253;24;20036;-91
2023/01/04 13:02:42;;;;;;;6.57;2.10;;;12.30;99.90;;;;;;5920883;24;20020;-89
2023/01/04 13:05:17;;;;;;;5.90;2.13;;;12.30;99.90;;;;;;5942317;24;20360;-91
2023/01/04 13:07:52;;;;;;;;;;;12.20;99.90;;;;;;5967254;24;20024;-90
2023/01/04 13:10:27;;;;;;;7.18;2.30;;;12.20;99.90;;;;;;5966172;24;19986;-89
2023/01/04 13:12:56;;;;;;;9.88;2.33;;;12.20;99.90;;;;;;5942529;24;20016;-90
2023/01/04 13:15:36;;;;;;;7.50;2.38;;;12.20;99.90;;;;;;5963882;24;20417;-91
2023/01/04 13:18:49;;;;;;;10.95;2.40;;;12.20;99.90;;;;;;5921778;24;20020;-90
2023/01/04 13:21:28;;;;;;;9.52;2.13;;;12.20;99.90;;;;;;5934875;24;20339;-90
2023/01/04 13:24:22;;;;;;;11.15;2.60;;;12.20;99.90;;;;;;5962447;24;20123;-91
2023/01/04 13:26:50;;;;;;;11.20;3.00;;;12.10;99.90;;;;;;5935382;24;20020;-90
2023/01/04 13:29:17;;;;;;;13.15;2.80;;;12.10;99.90;;;;;;5967753;24;20027;-91
2023/01/04 13:31:55;;;;;;;17.65;3.40;;;12.10;99.90;;;;;;5920572;24;20023;-90
2023/01/04 13:34:22;;;;;;;16.17;3.20;;;12.10;99.90;;;;;;5968161;24;20039;-90
2023/01/04 13:37:12;;;;;;;19.08;3.65;;;12.10;99.90;;;;;;5965822;24;20091;-90
2023/01/04 13:39:44;;;;;;;14.88;3.75;;;12.20;99.90;;;;;;5944222;24;20087;-92
2023/01/04 13:42:20;;;;;;;17.17;4.22;;;12.10;99.90;;;;;;5921998;24;20024;-90
2023/01/04 13:44:53;;;;;;;15.30;3.75;;;12.20;99.90;;;;;;5968224;24;20320;-91
2023/01/04 13:47:19;;;;;;;19.50;4.03;;;12.20;99.90;;;;;;5921776;24;20020;-88
2023/01/04 13:49:45;;;;;;;18.30;3.65;;;12.20;99.90;;;;;;5945625;24;20139;-90
2023/01/04 13:52:29;;;;;;;16.30;3.33;;;12.10;99.90;;;;;;5921806;24;20028;-90
2023/01/04 13:55:18;;;;;;;18.33;4.10;;;12.10;99.90;;;;;;5924326;24;20020;-91
2023/01/04 13:58:22;;;;;;;14.25;3.25;;;12.20;99.90;;;;;;5923009;24;20250;-90
2023/01/04 14:01:02;;;;;;;13.10;3.60;;;12.10;99.90;;;;;;5955532;24;20042;-90
2023/01/04 14:03:47;;;;;;;13.93;3.05;;;12.10;99.90;;;;;;5921074;24;20410;-89